createdAt,value
2023-03-31T00:02:13.121Z,98235.52
2023-03-31T00:04:45.448Z,98235.11
2023-03-31T00:07:14.469Z,98238.98
2023-03-31T00:09:47.645Z,98240.27
2023-03-31T00:12:15.949Z,98243.30
2023-03-31T00:14:46.065Z,98234.08
2023-03-31T00:17:13.242Z,98232.88
2023-03-31T00:19:42.690Z,98227.58
2023-03-31T00:22:13.324Z,98227.42
2023-03-31T00:24:44.391Z,98223.77
2023-03-31T00:27:16.634Z,98224.20
2023-03-31T00:29:44.952Z,98222.30
2023-03-31T00:32:17.156Z,98216.14
2023-03-31T00:34:51.956Z,98209.71
2023-03-31T00:37:38.723Z,98205.27
2023-03-31T00:40:08.730Z,98198.81
2023-03-31T00:43:15.894Z,98194.48
2023-03-31T00:46:25.859Z,98194.52
2023-03-31T00:49:15.790Z,98183.33
2023-03-31T00:51:44.338Z,98169.98
2023-03-31T00:55:00.682Z,98164.52
2023-03-31T00:57:31.966Z,98155.06
2023-03-31T01:00:25.230Z,98148.77
2023-03-31T01:03:22.022Z,98145.92
2023-03-31T01:06:06.625Z,98138.77
2023-03-31T01:08:36.174Z,98133.48
2023-03-31T01:27:37.456Z,98105.26
2023-03-31T01:34:30.200Z,98098.21
2023-03-31T01:38:13.415Z,98092.43
2023-03-31T01:40:55.847Z,98085.91
2023-03-31T01:45:00.458Z,98079.09
2023-03-31T01:51:42.312Z,98074.20
2023-03-31T01:54:57.205Z,98060.38
2023-03-31T01:57:30.879Z,98058.19
2023-03-31T02:00:16.479Z,98055.44
2023-03-31T02:03:35.388Z,98056.15
2023-03-31T02:06:19.986Z,98055.35
2023-03-31T02:08:57.460Z,98059.54
2023-03-31T02:11:28.528Z,98057.80
2023-03-31T02:14:04.002Z,98059.15
2023-03-31T02:17:06.127Z,98061.09
2023-03-31T02:19:41.218Z,98059.23
2023-03-31T02:22:12.229Z,98054.45
2023-03-31T02:24:49.690Z,98057.50
2023-03-31T02:27:25.661Z,98054.02
2023-03-31T02:29:55.210Z,98056.16
2023-03-31T02:32:44.121Z,98061.02
2023-03-31T02:35:20.217Z,98058.04
2023-03-31T02:37:54.214Z,98058.27
2023-03-31T02:40:23.156Z,98052.94
2023-03-31T02:42:51.383Z,98051.86
2023-03-31T02:45:50.852Z,98046.52
2023-03-31T02:48:23.269Z,98052.11
2023-03-31T02:51:08.714Z,98051.04
2023-03-31T02:53:46.017Z,98057.89
2023-03-31T02:56:19.316Z,98055.15
2023-03-31T02:58:59.387Z,98049.80
2023-03-31T03:01:38.139Z,98051.36
2023-03-31T03:04:26.768Z,98056.06
2023-03-31T03:07:15.297Z,98063.73
2023-03-31T03:10:07.538Z,98064.70
2023-03-31T03:12:44.527Z,98065.91
2023-03-31T03:15:32.481Z,98061.63
2023-03-31T03:18:07.982Z,98069.17
2023-03-31T03:20:41.402Z,98066.50
2023-03-31T03:23:12.186Z,98067.27
2023-03-31T03:25:42.480Z,98073.30
2023-03-31T03:28:13.023Z,98073.14
2023-03-31T03:30:41.515Z,98079.68
2023-03-31T03:33:10.115Z,98079.58
2023-03-31T03:35:40.051Z,98083.13
2023-03-31T03:38:10.637Z,98082.90
2023-03-31T03:40:38.687Z,98087.46
2023-03-31T03:43:11.224Z,98091.21
2023-03-31T03:45:39.300Z,98095.23
2023-03-31T03:48:07.624Z,98095.89
2023-03-31T03:50:37.108Z,98092.88
2023-03-31T03:53:05.679Z,98096.56
2023-03-31T03:55:34.198Z,98093.65
2023-03-31T03:58:02.608Z,98101.63
2023-03-31T04:00:31.353Z,98098.64
2023-03-31T04:02:59.945Z,98097.72
2023-03-31T04:05:30.733Z,98096.96
2023-03-31T04:07:59.059Z,98100.39
2023-03-31T04:10:27.760Z,98099.23
2023-03-31T04:12:55.910Z,98100.16
2023-03-31T04:15:24.199Z,98100.75
2023-03-31T04:17:54.841Z,98104.54
2023-03-31T04:20:27.963Z,98111.59
2023-03-31T04:22:56.519Z,98112.10
2023-03-31T04:25:24.949Z,98111.36
2023-03-31T04:27:55.786Z,98111.52
2023-03-31T04:30:33.516Z,98105.22
2023-03-31T04:33:06.694Z,98106.50
2023-03-31T04:35:50.838Z,98106.23
2023-03-31T04:38:23.652Z,98105.42
2023-03-31T04:40:53.023Z,98104.04
2023-03-31T04:43:22.143Z,98109.70
2023-03-31T04:45:53.045Z,98106.21
2023-03-31T04:48:21.437Z,98109.69
2023-03-31T04:50:49.880Z,98113.09
2023-03-31T04:53:18.146Z,98117.98
2023-03-31T04:55:46.472Z,98114.08
2023-03-31T04:58:14.565Z,98116.68
2023-03-31T05:00:42.569Z,98112.66
2023-03-31T05:03:10.932Z,98117.90
2023-03-31T05:05:39.021Z,98121.25
2023-03-31T05:08:09.688Z,98123.39
2023-03-31T05:10:44.548Z,98120.38
2023-03-31T05:13:23.753Z,98122.34
2023-03-31T05:24:42.688Z,98123.13
2023-03-31T05:31:55.556Z,98124.59
2023-03-31T05:35:54.561Z,98128.59
2023-03-31T05:39:09.207Z,98137.05
2023-03-31T05:42:21.270Z,98130.88
2023-03-31T05:45:38.900Z,98136.97
2023-03-31T05:49:25.207Z,98139.11
2023-03-31T05:52:58.483Z,98136.23
2023-03-31T05:55:47.614Z,98135.63
2023-03-31T05:59:28.924Z,98126.93
2023-03-31T06:01:57.466Z,98123.73
2023-03-31T06:07:26.156Z,98121.98
2023-03-31T06:09:56.967Z,98116.50
2023-03-31T06:12:26.731Z,98116.93
2023-03-31T06:14:56.966Z,98120.21
2023-03-31T06:17:27.884Z,98126.21
2023-03-31T06:19:56.301Z,98125.70
2023-03-31T06:22:24.696Z,98124.43
2023-03-31T06:24:52.788Z,98128.29
2023-03-31T06:27:21.249Z,98136.23
2023-03-31T06:29:50.530Z,98134.80
2023-03-31T06:32:21.730Z,98137.65
2023-03-31T06:35:09.849Z,98141.18
2023-03-31T06:37:48.707Z,98145.31
2023-03-31T06:40:27.362Z,98145.33
2023-03-31T06:46:22.700Z,98157.08
2023-03-31T06:48:56.302Z,98153.65
2023-03-31T06:59:09.262Z,98156.73
2023-03-31T07:01:42.740Z,98162.58
2023-03-31T07:04:12.159Z,98160.40
2023-03-31T07:06:42.064Z,98158.29
2023-03-31T07:09:10.717Z,98161.20
2023-03-31T07:11:39.432Z,98159.67
2023-03-31T07:33:16.359Z,98154.95
2023-03-31T09:09:00.023Z,98225.02
2023-03-31T09:13:05.405Z,98229.70
2023-03-31T09:16:16.116Z,98226.44
2023-03-31T09:18:47.448Z,98220.48
2023-03-31T09:21:29.393Z,98219.73
2023-03-31T09:24:21.189Z,98217.80
2023-03-31T09:26:56.904Z,98216.48
2023-03-31T09:38:13.332Z,98225.73
2023-03-31T09:42:15.129Z,98231.92
2023-03-31T09:46:15.268Z,98219.77
2023-03-31T09:54:39.190Z,98216.48
2023-03-31T10:02:36.784Z,98202.39
2023-03-31T10:16:48.088Z,98184.64
2023-03-31T10:20:47.893Z,98182.63
2023-03-31T10:28:37.967Z,98171.59
2023-03-31T10:36:22.917Z,98167.36
2023-03-31T10:40:50.013Z,98167.08
2023-03-31T10:45:12.868Z,98174.61
2023-03-31T10:53:09.422Z,98167.27
2023-03-31T10:56:58.630Z,98171.09
2023-03-31T11:00:26.124Z,98180.97
2023-03-31T11:53:58.912Z,98178.92
2023-03-31T11:56:40.529Z,98186.95
2023-03-31T11:59:14.382Z,98175.27
2023-03-31T12:02:18.195Z,98171.85
2023-03-31T12:04:52.136Z,98139.31
2023-03-31T12:07:24.330Z,98123.77
2023-03-31T12:10:05.919Z,98123.23
2023-03-31T12:12:40.412Z,98134.77
2023-03-31T12:15:20.492Z,98134.59
2023-03-31T12:18:01.997Z,98131.05
2023-03-31T12:20:42.616Z,98122.65
2023-03-31T12:23:19.696Z,98122.54
2023-03-31T12:25:57.826Z,98119.05
2023-03-31T12:28:32.754Z,98122.48
2023-03-31T12:31:40.952Z,98122.04
2023-03-31T12:35:10.751Z,98115.74
2023-03-31T13:07:17.348Z,98072.08
2023-03-31T13:37:54.267Z,97984.89
2023-03-31T13:40:34.754Z,97961.49
2023-03-31T13:43:44.222Z,97944.87
2023-03-31T13:46:24.546Z,97943.25
2023-03-31T13:49:30.440Z,97929.58
2023-03-31T13:52:03.687Z,97929.09
2023-03-31T13:54:53.835Z,97922.36
2023-03-31T13:58:03.241Z,97913.04
2023-03-31T14:00:56.262Z,97920.57
2023-03-31T14:03:33.194Z,97927.55
2023-03-31T14:06:12.422Z,97912.74
2023-03-31T14:08:56.323Z,97901.05
2023-03-31T14:11:31.924Z,97891.45
2023-03-31T14:14:16.309Z,97884.18
2023-03-31T14:17:04.790Z,97882.00
2023-03-31T14:19:50.607Z,97880.80
2023-03-31T14:22:43.935Z,97882.69
2023-03-31T14:25:21.760Z,97872.48
2023-03-31T14:28:05.215Z,97877.30
2023-03-31T14:31:05.058Z,97874.60
2023-03-31T14:33:59.865Z,97875.16
2023-03-31T14:37:00.361Z,97886.27
2023-03-31T16:05:04.351Z,97904.61
2023-03-31T16:08:49.385Z,97890.44
2023-03-31T16:11:28.531Z,97878.55
2023-03-31T16:14:39.765Z,97863.70
2023-03-31T16:17:41.782Z,97856.84
2023-03-31T16:21:29.109Z,97857.48
2023-03-31T16:25:20.334Z,97859.05
2023-03-31T16:32:29.510Z,97841.30
2023-03-31T16:35:17.999Z,97840.34
2023-03-31T16:56:12.101Z,97839.11
2023-03-31T16:58:41.509Z,97836.99
2023-03-31T17:01:54.855Z,97834.36
2023-03-31T17:06:36.989Z,97831.84
2023-03-31T17:13:18.343Z,97825.70
2023-03-31T17:20:47.063Z,97816.74
2023-03-31T17:24:28.030Z,97824.92
2023-03-31T17:27:20.012Z,97829.48
2023-03-31T17:34:36.517Z,97811.80
2023-03-31T17:37:05.716Z,97805.37
2023-03-31T17:39:34.214Z,97784.83
2023-03-31T17:42:03.934Z,97777.16
2023-03-31T17:47:45.371Z,97768.42
2023-03-31T17:50:55.191Z,97756.24
2023-03-31T17:57:56.771Z,97737.59
2023-03-31T18:05:41.094Z,97702.61
2023-03-31T20:19:26.545Z,97278.77
2023-03-31T20:22:30.559Z,97277.14
2023-03-31T20:24:59.856Z,97276.29
2023-03-31T20:27:48.673Z,97270.00
2023-03-31T20:30:19.137Z,97267.41
2023-03-31T20:32:52.370Z,97269.29
2023-03-31T20:35:20.776Z,97261.70
2023-03-31T20:37:52.744Z,97256.88
2023-03-31T20:40:22.885Z,97257.45
2023-03-31T20:42:54.214Z,97258.17
2023-03-31T21:07:43.938Z,97281.29
2023-03-31T21:10:13.563Z,97275.54
2023-03-31T21:12:46.251Z,97272.65
2023-03-31T21:15:17.485Z,97273.40
2023-03-31T21:17:45.666Z,97272.33
2023-03-31T21:20:16.106Z,97264.95
2023-03-31T21:22:46.137Z,97266.52
2023-03-31T21:25:14.588Z,97268.54
2023-03-31T21:27:44.512Z,97272.75
2023-03-31T21:30:14.360Z,97272.45
2023-03-31T21:32:45.067Z,97278.02
2023-03-31T22:01:22.924Z,97283.51
2023-03-31T22:05:24.769Z,97283.11
2023-03-31T22:09:21.741Z,97278.33
2023-03-31T22:13:02.894Z,97277.41
2023-03-31T22:43:10.143Z,97266.43
2023-03-31T22:47:00.771Z,97268.55
2023-03-31T22:49:52.340Z,97268.30
2023-03-31T22:53:20.687Z,97264.63
2023-03-31T22:57:23.797Z,97265.60
2023-03-31T23:01:07.031Z,97260.99
2023-03-31T23:05:17.046Z,97259.55
2023-03-31T23:16:04.937Z,97255.86
2023-03-31T23:20:03.326Z,97259.88
2023-03-31T23:27:01.787Z,97258.95
2023-03-31T23:30:51.577Z,97258.58
2023-03-31T23:38:43.021Z,97245.21
2023-03-31T23:41:19.594Z,97250.16
2023-03-31T23:43:48.393Z,97246.21
2023-03-31T23:47:27.780Z,97243.70
2023-03-31T23:50:00.397Z,97244.91
2023-03-31T23:52:29.373Z,97241.95
2023-03-31T23:54:57.836Z,97242.20
2023-03-31T23:57:26.398Z,97241.48
2023-03-31T23:59:57.546Z,97238.39
